BAW9901 EGKK-EGPH
Flight info
| Callsign | BAW9901 |
|---|---|
| Flight time | N/A |
| Altitude | 40000 |
| Route | LAM L10 BPK UN601 RIBEL DCT INPIP |
| Aircraft | B772/H-SDE2E3FGHIJ5LORVWXY/LB1D1 |
Departure
| Time | 2026-04-15 21:08 |
|---|---|
| Airport | London Gatwick Airport (EGKK) |
Arrival
| Time | N/A |
|---|---|
| Airport | Edinburgh Airport (EGPH) |
| Time | Latitude | Longitude | Altitude | Speed | Heading |
|---|---|---|---|---|---|
| 2026-04-15 20:51 | 51.15587 | -0.16903 | 208 ft | 0 kts | 167° |
| 2026-04-15 20:59 | 51.15589 | -0.16904 | 208 ft | 1 kts | 167° |
| 2026-04-15 21:00 | 51.15605 | -0.16909 | 220 ft | 3 kts | 167° |
| 2026-04-15 21:00 | 51.15624 | -0.16916 | 214 ft | 3 kts | 167° |
| 2026-04-15 21:00 | 51.15638 | -0.16922 | 221 ft | 3 kts | 175° |
| 2026-04-15 21:00 | 51.15654 | -0.16920 | 220 ft | 3 kts | 219° |
| 2026-04-15 21:01 | 51.15663 | -0.16897 | 221 ft | 3 kts | 259° |
| 2026-04-15 21:01 | 51.15666 | -0.16873 | 214 ft | 1 kts | 258° |
| 2026-04-15 21:01 | 51.15666 | -0.16871 | 214 ft | 0 kts | 257° |
| 2026-04-15 21:04 | 51.15656 | -0.16943 | 221 ft | 12 kts | 257° |
| 2026-04-15 21:05 | 51.15636 | -0.17077 | 208 ft | 13 kts | 256° |
| 2026-04-15 21:05 | 51.15616 | -0.17219 | 217 ft | 13 kts | 257° |
| 2026-04-15 21:05 | 51.15594 | -0.17293 | 219 ft | 10 kts | 216° |
| 2026-04-15 21:05 | 51.15511 | -0.17299 | 208 ft | 15 kts | 169° |
| 2026-04-15 21:06 | 51.15424 | -0.17271 | 218 ft | 7 kts | 168° |
| 2026-04-15 21:06 | 51.15363 | -0.17249 | 214 ft | 2 kts | 167° |
| 2026-04-15 21:06 | 51.15331 | -0.17237 | 214 ft | 5 kts | 167° |
| 2026-04-15 21:06 | 51.15295 | -0.17220 | 218 ft | 5 kts | 158° |
| 2026-04-15 21:07 | 51.15263 | -0.17192 | 220 ft | 5 kts | 152° |
| 2026-04-15 21:07 | 51.15209 | -0.17168 | 217 ft | 8 kts | 170° |
| 2026-04-15 21:07 | 51.15124 | -0.17147 | 216 ft | 15 kts | 182° |
| 2026-04-15 21:07 | 51.15054 | -0.17286 | 217 ft | 28 kts | 256° |
| 2026-04-15 21:08 | 51.14934 | -0.18025 | 216 ft | 110 kts | 250° |
| 2026-04-15 21:08 | 51.14688 | -0.19436 | 418 ft | 153 kts | 253° |
| 2026-04-15 21:08 | 51.14417 | -0.21348 | 852 ft | 190 kts | 256° |
| 2026-04-15 21:08 | 51.14172 | -0.23309 | 2240 ft | 165 kts | 257° |
| 2026-04-15 21:09 | 51.13951 | -0.25080 | 3215 ft | 156 kts | 256° |
| 2026-04-15 21:09 | 51.13747 | -0.26755 | 3898 ft | 155 kts | 259° |
| 2026-04-15 21:09 | 51.13803 | -0.28599 | 4111 ft | 184 kts | 279° |
| 2026-04-15 21:09 | 51.14365 | -0.30618 | 4091 ft | 213 kts | 300° |
| 2026-04-15 21:10 | 51.15485 | -0.32260 | 4099 ft | 229 kts | 326° |
| 2026-04-15 21:10 | 51.17068 | -0.32859 | 4106 ft | 245 kts | 358° |
| 2026-04-15 21:10 | 51.18709 | -0.31973 | 4101 ft | 258 kts | 35° |
| 2026-04-15 21:10 | 51.19800 | -0.29745 | 4103 ft | 258 kts | 72° |
| 2026-04-15 21:11 | 51.20038 | -0.26971 | 4111 ft | 253 kts | 94° |
| 2026-04-15 21:11 | 51.20090 | -0.24108 | 4122 ft | 263 kts | 88° |
| 2026-04-15 21:11 | 51.20285 | -0.21242 | 4099 ft | 263 kts | 86° |
| 2026-04-15 21:11 | 51.20566 | -0.18263 | 4150 ft | 284 kts | 81° |
| 2026-04-15 21:12 | 51.20972 | -0.15126 | 4133 ft | 292 kts | 79° |
| 2026-04-15 21:12 | 51.21405 | -0.11954 | 4674 ft | 292 kts | 79° |
| 2026-04-15 21:12 | 51.21835 | -0.08771 | 5126 ft | 297 kts | 79° |
| 2026-04-15 21:12 | 51.22266 | -0.05528 | 5104 ft | 299 kts | 79° |
| 2026-04-15 21:13 | 51.22666 | -0.02515 | 5091 ft | 289 kts | 80° |
| 2026-04-15 21:13 | 51.23060 | 0.00481 | 4917 ft | 280 kts | 80° |
| 2026-04-15 21:13 | 51.23453 | 0.03507 | 4901 ft | 277 kts | 80° |
| 2026-04-15 21:13 | 51.23842 | 0.06513 | 4890 ft | 276 kts | 81° |
| 2026-04-15 21:14 | 51.24233 | 0.09535 | 4857 ft | 277 kts | 81° |
| 2026-04-15 21:14 | 51.24621 | 0.12529 | 4825 ft | 277 kts | 81° |
| 2026-04-15 21:14 | 51.25009 | 0.15533 | 4789 ft | 276 kts | 81° |
| 2026-04-15 21:14 | 51.25394 | 0.18554 | 4790 ft | 284 kts | 81° |
| 2026-04-15 21:15 | 51.25777 | 0.21122 | 4739 ft | 279 kts | 70° |
| 2026-04-15 21:15 | 51.26838 | 0.23628 | 4739 ft | 273 kts | 33° |
| 2026-04-15 21:15 | 51.28550 | 0.24823 | 4778 ft | 272 kts | 2° |
| 2026-04-15 21:15 | 51.30378 | 0.24643 | 4632 ft | 257 kts | 333° |
| 2026-04-15 21:16 | 51.31820 | 0.23208 | 4330 ft | 238 kts | 307° |
| 2026-04-15 21:16 | 51.32806 | 0.21188 | 4062 ft | 226 kts | 295° |
| 2026-04-15 21:16 | 51.33611 | 0.19048 | 4054 ft | 223 kts | 294° |
| 2026-04-15 21:16 | 51.34384 | 0.16896 | 3729 ft | 223 kts | 294° |
| 2026-04-15 21:17 | 51.35137 | 0.14807 | 3659 ft | 211 kts | 294° |
| 2026-04-15 21:17 | 51.35849 | 0.12834 | 3591 ft | 198 kts | 293° |
| 2026-04-15 21:17 | 51.36524 | 0.10959 | 3601 ft | 193 kts | 293° |
| 2026-04-15 21:17 | 51.37182 | 0.09138 | 3643 ft | 183 kts | 292° |
| 2026-04-15 21:18 | 51.37794 | 0.07456 | 3630 ft | 165 kts | 292° |
| 2026-04-15 21:18 | 51.38165 | 0.06435 | 3592 ft | 155 kts | 291° |
| 2026-04-15 21:18 | 51.38866 | 0.04493 | 3599 ft | 150 kts | 291° |
| 2026-04-15 21:18 | 51.39381 | 0.03063 | 3599 ft | 150 kts | 291° |
| 2026-04-15 21:19 | 51.39902 | 0.01620 | 3620 ft | 150 kts | 291° |
| 2026-04-15 21:19 | 51.40426 | 0.00163 | 3597 ft | 151 kts | 292° |
| 2026-04-15 21:19 | 51.40951 | -0.01285 | 3599 ft | 150 kts | 292° |
| 2026-04-15 21:19 | 51.41306 | -0.02265 | 3580 ft | 151 kts | 292° |
| 2026-04-15 21:20 | 51.41826 | -0.03702 | 3605 ft | 151 kts | 292° |
| 2026-04-15 21:20 | 51.42358 | -0.05172 | 3601 ft | 153 kts | 292° |
| 2026-04-15 21:20 | 51.42894 | -0.06650 | 3583 ft | 154 kts | 292° |
| 2026-04-15 21:20 | 51.43431 | -0.08136 | 3600 ft | 155 kts | 292° |
| 2026-04-15 21:21 | 51.43975 | -0.09639 | 3577 ft | 155 kts | 292° |
| 2026-04-15 21:21 | 51.44515 | -0.11127 | 3572 ft | 154 kts | 292° |
| 2026-04-15 21:21 | 51.45051 | -0.12607 | 3574 ft | 152 kts | 292° |
| 2026-04-15 21:21 | 51.45579 | -0.14063 | 3574 ft | 149 kts | 292° |
| 2026-04-15 21:22 | 51.46082 | -0.15443 | 3556 ft | 138 kts | 291° |
| 2026-04-15 21:22 | 51.46408 | -0.16813 | 3343 ft | 127 kts | 265° |
| 2026-04-15 21:22 | 51.46332 | -0.18281 | 3185 ft | 131 kts | 268° |
| 2026-04-15 21:22 | 51.46515 | -0.19711 | 3095 ft | 142 kts | 276° |
| 2026-04-15 21:23 | 51.46598 | -0.21252 | 2846 ft | 137 kts | 266° |
| 2026-04-15 21:23 | 51.46616 | -0.22826 | 2656 ft | 141 kts | 267° |
| 2026-04-15 21:23 | 51.46627 | -0.24376 | 2467 ft | 140 kts | 266° |
| 2026-04-15 21:23 | 51.46625 | -0.25930 | 2272 ft | 140 kts | 266° |
| 2026-04-15 21:24 | 51.46617 | -0.27492 | 2093 ft | 140 kts | 265° |
| 2026-04-15 21:24 | 51.46608 | -0.29063 | 1902 ft | 142 kts | 265° |
| 2026-04-15 21:24 | 51.46596 | -0.30670 | 1691 ft | 142 kts | 265° |
| 2026-04-15 21:24 | 51.46586 | -0.32231 | 1489 ft | 142 kts | 265° |
| 2026-04-15 21:25 | 51.46575 | -0.33835 | 1312 ft | 146 kts | 265° |
| 2026-04-15 21:25 | 51.46565 | -0.35467 | 1094 ft | 145 kts | 265° |
| 2026-04-15 21:25 | 51.46555 | -0.37108 | 886 ft | 150 kts | 264° |
| 2026-04-15 21:25 | 51.46542 | -0.38828 | 668 ft | 157 kts | 266° |
| 2026-04-15 21:26 | 51.46535 | -0.40569 | 470 ft | 154 kts | 266° |
| 2026-04-15 21:26 | 51.46528 | -0.42247 | 263 ft | 152 kts | 267° |
| 2026-04-15 21:26 | 51.46533 | -0.43845 | 109 ft | 150 kts | 262° |
| 2026-04-15 21:26 | 51.46499 | -0.45341 | 95 ft | 119 kts | 263° |
| 2026-04-15 21:27 | 51.46482 | -0.46054 | 93 ft | 44 kts | 269° |
| 2026-04-15 21:27 | 51.46485 | -0.46381 | 96 ft | 21 kts | 273° |
| 2026-04-15 21:27 | 51.46511 | -0.46606 | 96 ft | 21 kts | 290° |
| 2026-04-15 21:27 | 51.46537 | -0.46715 | 96 ft | 6 kts | 292° |
| 2026-04-15 21:28 | 51.46555 | -0.46780 | 94 ft | 6 kts | 294° |
| 2026-04-15 21:28 | 51.46578 | -0.46843 | 95 ft | 7 kts | 316° |
| 2026-04-15 21:28 | 51.46622 | -0.46861 | 93 ft | 7 kts | 356° |
| 2026-04-15 21:28 | 51.46669 | -0.46862 | 93 ft | 7 kts | 359° |
| 2026-04-15 21:29 | 51.46716 | -0.46863 | 93 ft | 7 kts | 359° |
| 2026-04-15 21:29 | 51.46748 | -0.46911 | 95 ft | 7 kts | 288° |
| 2026-04-15 21:29 | 51.46748 | -0.46987 | 95 ft | 7 kts | 268° |
| 2026-04-15 21:29 | 51.46746 | -0.47078 | 94 ft | 7 kts | 268° |
| 2026-04-15 21:30 | 51.46745 | -0.47144 | 92 ft | 7 kts | 269° |
| 2026-04-15 21:30 | 51.46744 | -0.47222 | 90 ft | 7 kts | 271° |
| 2026-04-15 21:30 | 51.46745 | -0.47300 | 92 ft | 7 kts | 271° |
| 2026-04-15 21:30 | 51.46747 | -0.47338 | 95 ft | 0 kts | 281° |
| 2026-04-15 21:31 | 51.46746 | -0.47418 | 93 ft | 15 kts | 268° |
| 2026-04-15 21:31 | 51.46743 | -0.47588 | 91 ft | 15 kts | 268° |
| 2026-04-15 21:32 | 51.46743 | -0.47770 | 90 ft | 2 kts | 271° |
| 2026-04-15 21:32 | 51.46743 | -0.47805 | 90 ft | 8 kts | 271° |
| 2026-04-15 21:32 | 51.46784 | -0.47868 | 92 ft | 9 kts | 357° |
| 2026-04-15 21:32 | 51.46809 | -0.47867 | 90 ft | 3 kts | 360° |
| 2026-04-15 21:33 | 51.46831 | -0.47870 | 90 ft | 3 kts | 348° |
| 2026-04-15 21:33 | 51.46846 | -0.47896 | 95 ft | 3 kts | 293° |
| 2026-04-15 21:33 | 51.46847 | -0.47934 | 93 ft | 3 kts | 270° |
| 2026-04-15 21:33 | 51.46847 | -0.47972 | 94 ft | 3 kts | 270° |
| 2026-04-15 21:34 | 51.46847 | -0.48010 | 94 ft | 3 kts | 270° |
| 2026-04-15 21:34 | 51.46847 | -0.48034 | 94 ft | 0 kts | 270° |